sensor_id;sensor_type;location;lat;lon;timestamp;P1;durP1;ratioP1;P2;durP2;ratioP2
19609;SDS011;9952;47.122;-1.638;2022-10-16T00:02:15;3.60;;;1.10;;
19609;SDS011;9952;47.122;-1.638;2022-10-16T00:06:56;3.67;;;1.17;;
19609;SDS011;9952;47.122;-1.638;2022-10-16T00:11:37;4.23;;;1.10;;
19609;SDS011;9952;47.122;-1.638;2022-10-16T00:16:20;1.03;;;1.00;;
19609;SDS011;9952;47.122;-1.638;2022-10-16T00:21:02;1.53;;;0.90;;
19609;SDS011;9952;47.122;-1.638;2022-10-16T00:25:58;2.27;;;1.27;;
19609;SDS011;9952;47.122;-1.638;2022-10-16T00:30:40;1.23;;;0.77;;
19609;SDS011;9952;47.122;-1.638;2022-10-16T00:35:21;1.00;;;0.90;;
19609;SDS011;9952;47.122;-1.638;2022-10-16T00:40:02;2.17;;;0.80;;
19609;SDS011;9952;47.122;-1.638;2022-10-16T00:49:35;2.90;;;1.10;;
19609;SDS011;9952;47.122;-1.638;2022-10-16T00:54:21;3.60;;;0.90;;
19609;SDS011;9952;47.122;-1.638;2022-10-16T00:59:05;1.50;;;0.93;;
19609;SDS011;9952;47.122;-1.638;2022-10-16T01:03:53;0.60;;;0.60;;
19609;SDS011;9952;47.122;-1.638;2022-10-16T01:08:35;1.60;;;0.87;;
19609;SDS011;9952;47.122;-1.638;2022-10-16T01:13:25;1.43;;;0.80;;
19609;SDS011;9952;47.122;-1.638;2022-10-16T01:22:59;1.30;;;1.10;;
19609;SDS011;9952;47.122;-1.638;2022-10-16T01:27:54;2.10;;;1.10;;
19609;SDS011;9952;47.122;-1.638;2022-10-16T01:32:37;2.90;;;1.80;;
19609;SDS011;9952;47.122;-1.638;2022-10-16T01:37:22;2.13;;;0.90;;
19609;SDS011;9952;47.122;-1.638;2022-10-16T01:42:31;2.40;;;1.00;;
19609;SDS011;9952;47.122;-1.638;2022-10-16T01:47:17;2.13;;;0.70;;
19609;SDS011;9952;47.122;-1.638;2022-10-16T01:52:04;2.90;;;0.90;;
19609;SDS011;9952;47.122;-1.638;2022-10-16T01:56:48;5.23;;;1.20;;
19609;SDS011;9952;47.122;-1.638;2022-10-16T02:01:31;3.90;;;1.00;;
19609;SDS011;9952;47.122;-1.638;2022-10-16T02:06:13;2.43;;;1.00;;
19609;SDS011;9952;47.122;-1.638;2022-10-16T02:10:55;1.60;;;1.00;;
19609;SDS011;9952;47.122;-1.638;2022-10-16T02:15:36;3.30;;;1.37;;
19609;SDS011;9952;47.122;-1.638;2022-10-16T02:20:17;2.33;;;1.00;;
19609;SDS011;9952;47.122;-1.638;2022-10-16T02:25:05;6.27;;;1.10;;
19609;SDS011;9952;47.122;-1.638;2022-10-16T02:29:52;3.90;;;1.10;;
19609;SDS011;9952;47.122;-1.638;2022-10-16T02:34:38;5.83;;;1.20;;
19609;SDS011;9952;47.122;-1.638;2022-10-16T02:39:20;3.57;;;0.80;;
19609;SDS011;9952;47.122;-1.638;2022-10-16T02:44:02;2.33;;;0.87;;
19609;SDS011;9952;47.122;-1.638;2022-10-16T02:48:43;3.40;;;1.40;;
19609;SDS011;9952;47.122;-1.638;2022-10-16T02:53:23;4.30;;;1.30;;
19609;SDS011;9952;47.122;-1.638;2022-10-16T02:58:04;6.57;;;1.37;;
19609;SDS011;9952;47.122;-1.638;2022-10-16T03:02:45;4.63;;;1.00;;
19609;SDS011;9952;47.122;-1.638;2022-10-16T03:07:26;1.47;;;1.27;;
19609;SDS011;9952;47.122;-1.638;2022-10-16T03:12:07;3.70;;;1.60;;
19609;SDS011;9952;47.122;-1.638;2022-10-16T03:16:48;5.27;;;1.27;;
19609;SDS011;9952;47.122;-1.638;2022-10-16T03:21:28;2.93;;;1.40;;
19609;SDS011;9952;47.122;-1.638;2022-10-16T03:26:09;3.33;;;1.30;;
19609;SDS011;9952;47.122;-1.638;2022-10-16T03:30:50;2.40;;;1.03;;
19609;SDS011;9952;47.122;-1.638;2022-10-16T03:35:31;3.47;;;1.40;;
19609;SDS011;9952;47.122;-1.638;2022-10-16T03:40:13;5.63;;;1.20;;
19609;SDS011;9952;47.122;-1.638;2022-10-16T03:44:54;3.77;;;1.73;;
19609;SDS011;9952;47.122;-1.638;2022-10-16T03:49:35;5.57;;;2.10;;
19609;SDS011;9952;47.122;-1.638;2022-10-16T03:54:16;2.60;;;1.67;;
19609;SDS011;9952;47.122;-1.638;2022-10-16T03:58:56;3.23;;;2.00;;
19609;SDS011;9952;47.122;-1.638;2022-10-16T04:03:37;5.63;;;2.33;;
19609;SDS011;9952;47.122;-1.638;2022-10-16T04:08:18;4.10;;;2.20;;
19609;SDS011;9952;47.122;-1.638;2022-10-16T04:12:59;6.13;;;2.10;;
19609;SDS011;9952;47.122;-1.638;2022-10-16T04:17:40;6.83;;;2.00;;
19609;SDS011;9952;47.122;-1.638;2022-10-16T04:22:21;3.70;;;2.40;;
19609;SDS011;9952;47.122;-1.638;2022-10-16T04:27:02;7.13;;;2.10;;
19609;SDS011;9952;47.122;-1.638;2022-10-16T04:31:43;6.80;;;2.13;;
19609;SDS011;9952;47.122;-1.638;2022-10-16T04:36:23;5.63;;;2.20;;
19609;SDS011;9952;47.122;-1.638;2022-10-16T04:41:04;9.27;;;2.77;;
19609;SDS011;9952;47.122;-1.638;2022-10-16T04:45:46;3.33;;;2.53;;
19609;SDS011;9952;47.122;-1.638;2022-10-16T04:50:27;4.40;;;2.63;;
19609;SDS011;9952;47.122;-1.638;2022-10-16T04:55:08;3.33;;;2.73;;
19609;SDS011;9952;47.122;-1.638;2022-10-16T04:59:48;2.27;;;2.07;;
19609;SDS011;9952;47.122;-1.638;2022-10-16T05:04:29;4.23;;;2.53;;
19609;SDS011;9952;47.122;-1.638;2022-10-16T05:09:10;4.50;;;2.63;;
19609;SDS011;9952;47.122;-1.638;2022-10-16T05:13:51;4.67;;;2.17;;
19609;SDS011;9952;47.122;-1.638;2022-10-16T05:18:32;5.83;;;2.10;;
19609;SDS011;9952;47.122;-1.638;2022-10-16T05:23:13;9.87;;;2.47;;
19609;SDS011;9952;47.122;-1.638;2022-10-16T05:27:53;6.17;;;1.87;;
19609;SDS011;9952;47.122;-1.638;2022-10-16T05:32:34;3.63;;;2.30;;
19609;SDS011;9952;47.122;-1.638;2022-10-16T05:37:15;6.87;;;2.70;;
19609;SDS011;9952;47.122;-1.638;2022-10-16T05:41:56;6.60;;;2.17;;
19609;SDS011;9952;47.122;-1.638;2022-10-16T05:46:36;3.40;;;2.33;;
19609;SDS011;9952;47.122;-1.638;2022-10-16T05:51:17;6.70;;;2.50;;
19609;SDS011;9952;47.122;-1.638;2022-10-16T05:55:58;8.87;;;2.70;;
19609;SDS011;9952;47.122;-1.638;2022-10-16T06:00:39;5.93;;;2.70;;
19609;SDS011;9952;47.122;-1.638;2022-10-16T06:05:20;8.47;;;2.90;;
19609;SDS011;9952;47.122;-1.638;2022-10-16T06:10:01;7.47;;;2.80;;
19609;SDS011;9952;47.122;-1.638;2022-10-16T06:14:42;6.93;;;2.80;;
19609;SDS011;9952;47.122;-1.638;2022-10-16T06:19:24;5.20;;;3.03;;
19609;SDS011;9952;47.122;-1.638;2022-10-16T06:24:05;7.23;;;3.23;;
19609;SDS011;9952;47.122;-1.638;2022-10-16T06:28:46;10.70;;;3.93;;
19609;SDS011;9952;47.122;-1.638;2022-10-16T06:33:27;6.13;;;3.27;;
19609;SDS011;9952;47.122;-1.638;2022-10-16T06:38:08;7.87;;;4.10;;
19609;SDS011;9952;47.122;-1.638;2022-10-16T06:42:49;10.43;;;3.57;;
19609;SDS011;9952;47.122;-1.638;2022-10-16T06:47:31;4.87;;;3.47;;
19609;SDS011;9952;47.122;-1.638;2022-10-16T06:52:12;6.57;;;3.60;;
19609;SDS011;9952;47.122;-1.638;2022-10-16T06:56:53;5.17;;;3.70;;
19609;SDS011;9952;47.122;-1.638;2022-10-16T07:01:34;6.77;;;3.43;;
19609;SDS011;9952;47.122;-1.638;2022-10-16T07:06:16;5.00;;;3.40;;
19609;SDS011;9952;47.122;-1.638;2022-10-16T07:11:09;5.83;;;3.10;;
19609;SDS011;9952;47.122;-1.638;2022-10-16T07:15:51;7.03;;;4.10;;
19609;SDS011;9952;47.122;-1.638;2022-10-16T07:20:32;6.37;;;4.00;;
19609;SDS011;9952;47.122;-1.638;2022-10-16T07:25:13;7.63;;;3.50;;
19609;SDS011;9952;47.122;-1.638;2022-10-16T07:29:54;5.80;;;3.57;;
19609;SDS011;9952;47.122;-1.638;2022-10-16T07:34:35;6.90;;;3.77;;
19609;SDS011;9952;47.122;-1.638;2022-10-16T07:39:16;6.03;;;3.03;;
19609;SDS011;9952;47.122;-1.638;2022-10-16T07:43:57;7.00;;;3.00;;
19609;SDS011;9952;47.122;-1.638;2022-10-16T07:48:40;5.70;;;3.27;;
19609;SDS011;9952;47.122;-1.638;2022-10-16T07:53:21;3.57;;;3.00;;
19609;SDS011;9952;47.122;-1.638;2022-10-16T07:58:02;3.17;;;2.43;;
19609;SDS011;9952;47.122;-1.638;2022-10-16T08:02:43;6.03;;;2.97;;
19609;SDS011;9952;47.122;-1.638;2022-10-16T08:07:23;6.80;;;2.60;;
19609;SDS011;9952;47.122;-1.638;2022-10-16T08:12:04;3.07;;;1.90;;
19609;SDS011;9952;47.122;-1.638;2022-10-16T08:16:45;2.30;;;1.63;;
19609;SDS011;9952;47.122;-1.638;2022-10-16T08:21:26;4.17;;;1.73;;
19609;SDS011;9952;47.122;-1.638;2022-10-16T08:26:10;1.57;;;1.30;;
19609;SDS011;9952;47.122;-1.638;2022-10-16T08:31:09;2.27;;;1.50;;
19609;SDS011;9952;47.122;-1.638;2022-10-16T08:35:52;2.53;;;1.27;;
19609;SDS011;9952;47.122;-1.638;2022-10-16T08:40:36;2.40;;;1.40;;
19609;SDS011;9952;47.122;-1.638;2022-10-16T08:50:24;5.33;;;1.30;;
19609;SDS011;9952;47.122;-1.638;2022-10-16T08:55:28;2.67;;;1.10;;
19609;SDS011;9952;47.122;-1.638;2022-10-16T09:00:13;2.10;;;0.90;;
19609;SDS011;9952;47.122;-1.638;2022-10-16T09:05:15;2.07;;;0.80;;
19609;SDS011;9952;47.122;-1.638;2022-10-16T09:11:03;0.70;;;0.70;;
19609;SDS011;9952;47.122;-1.638;2022-10-16T09:15:31;3.87;;;0.90;;
19609;SDS011;9952;47.122;-1.638;2022-10-16T09:20:18;3.43;;;0.70;;
19609;SDS011;9952;47.122;-1.638;2022-10-16T09:25:13;2.73;;;1.07;;
19609;SDS011;9952;47.122;-1.638;2022-10-16T09:29:56;0.67;;;0.67;;
19609;SDS011;9952;47.122;-1.638;2022-10-16T09:34:37;1.10;;;0.80;;
19609;SDS011;9952;47.122;-1.638;2022-10-16T09:39:22;5.47;;;1.07;;
19609;SDS011;9952;47.122;-1.638;2022-10-16T09:44:03;4.23;;;1.00;;
19609;SDS011;9952;47.122;-1.638;2022-10-16T09:48:57;2.40;;;1.10;;
19609;SDS011;9952;47.122;-1.638;2022-10-16T09:53:43;2.13;;;1.17;;
19609;SDS011;9952;47.122;-1.638;2022-10-16T09:58:25;2.80;;;1.50;;
19609;SDS011;9952;47.122;-1.638;2022-10-16T10:03:10;1.97;;;1.57;;
19609;SDS011;9952;47.122;-1.638;2022-10-16T10:07:55;3.00;;;1.70;;
19609;SDS011;9952;47.122;-1.638;2022-10-16T10:12:37;1.30;;;1.17;;
19609;SDS011;9952;47.122;-1.638;2022-10-16T10:17:20;2.97;;;1.30;;
19609;SDS011;9952;47.122;-1.638;2022-10-16T10:22:12;1.60;;;1.10;;
19609;SDS011;9952;47.122;-1.638;2022-10-16T10:27:06;0.97;;;0.80;;
19609;SDS011;9952;47.122;-1.638;2022-10-16T10:31:59;0.80;;;0.80;;
19609;SDS011;9952;47.122;-1.638;2022-10-16T10:37:00;1.93;;;0.67;;
19609;SDS011;9952;47.122;-1.638;2022-10-16T10:46:49;0.87;;;0.30;;
19609;SDS011;9952;47.122;-1.638;2022-10-16T11:06:20;0.73;;;0.40;;
19609;SDS011;9952;47.122;-1.638;2022-10-16T11:11:10;1.40;;;0.40;;
19609;SDS011;9952;47.122;-1.638;2022-10-16T11:16:17;0.53;;;0.30;;
19609;SDS011;9952;47.122;-1.638;2022-10-16T11:21:26;0.97;;;0.20;;
19609;SDS011;9952;47.122;-1.638;2022-10-16T11:26:16;1.60;;;0.37;;
19609;SDS011;9952;47.122;-1.638;2022-10-16T11:31:08;0.30;;;0.30;;
19609;SDS011;9952;47.122;-1.638;2022-10-16T11:36:12;2.87;;;0.60;;
19609;SDS011;9952;47.122;-1.638;2022-10-16T11:41:02;0.73;;;0.40;;
19609;SDS011;9952;47.122;-1.638;2022-10-16T11:46:08;0.30;;;0.30;;
19609;SDS011;9952;47.122;-1.638;2022-10-16T11:51:07;1.13;;;0.40;;
19609;SDS011;9952;47.122;-1.638;2022-10-16T11:55:48;1.90;;;0.60;;
19609;SDS011;9952;47.122;-1.638;2022-10-16T12:10:42;0.50;;;0.50;;
19609;SDS011;9952;47.122;-1.638;2022-10-16T12:15:29;0.50;;;0.50;;
19609;SDS011;9952;47.122;-1.638;2022-10-16T12:24:59;0.40;;;0.40;;
19609;SDS011;9952;47.122;-1.638;2022-10-16T12:29:41;0.47;;;0.47;;
19609;SDS011;9952;47.122;-1.638;2022-10-16T12:34:41;1.23;;;0.50;;
19609;SDS011;9952;47.122;-1.638;2022-10-16T12:39:23;0.80;;;0.70;;
19609;SDS011;9952;47.122;-1.638;2022-10-16T12:44:05;1.67;;;0.77;;
19609;SDS011;9952;47.122;-1.638;2022-10-16T12:49:05;0.60;;;0.60;;
19609;SDS011;9952;47.122;-1.638;2022-10-16T12:54:03;1.60;;;0.60;;
19609;SDS011;9952;47.122;-1.638;2022-10-16T13:19:32;1.13;;;0.60;;
19609;SDS011;9952;47.122;-1.638;2022-10-16T13:24:25;2.03;;;0.60;;
19609;SDS011;9952;47.122;-1.638;2022-10-16T13:29:33;0.67;;;0.63;;
19609;SDS011;9952;47.122;-1.638;2022-10-16T13:34:15;0.60;;;0.60;;
19609;SDS011;9952;47.122;-1.638;2022-10-16T13:39:45;0.57;;;0.57;;
19609;SDS011;9952;47.122;-1.638;2022-10-16T13:44:08;1.13;;;0.53;;
19609;SDS011;9952;47.122;-1.638;2022-10-16T13:49:01;1.20;;;0.77;;
19609;SDS011;9952;47.122;-1.638;2022-10-16T13:53:44;1.37;;;0.67;;
19609;SDS011;9952;47.122;-1.638;2022-10-16T13:58:26;0.90;;;0.60;;
19609;SDS011;9952;47.122;-1.638;2022-10-16T14:03:11;0.90;;;0.80;;
19609;SDS011;9952;47.122;-1.638;2022-10-16T14:07:54;0.80;;;0.80;;
19609;SDS011;9952;47.122;-1.638;2022-10-16T14:12:39;3.20;;;1.30;;
19609;SDS011;9952;47.122;-1.638;2022-10-16T14:17:23;1.23;;;0.73;;
19609;SDS011;9952;47.122;-1.638;2022-10-16T14:22:22;1.93;;;1.00;;
19609;SDS011;9952;47.122;-1.638;2022-10-16T14:27:27;2.97;;;1.00;;
19609;SDS011;9952;47.122;-1.638;2022-10-16T14:32:20;2.10;;;0.93;;
19609;SDS011;9952;47.122;-1.638;2022-10-16T14:37:07;4.93;;;1.40;;
19609;SDS011;9952;47.122;-1.638;2022-10-16T14:42:00;2.80;;;1.60;;
19609;SDS011;9952;47.122;-1.638;2022-10-16T14:46:44;2.30;;;1.70;;
19609;SDS011;9952;47.122;-1.638;2022-10-16T14:51:26;3.53;;;1.87;;
19609;SDS011;9952;47.122;-1.638;2022-10-16T14:56:28;5.03;;;2.10;;
19609;SDS011;9952;47.122;-1.638;2022-10-16T15:01:12;3.83;;;2.30;;
19609;SDS011;9952;47.122;-1.638;2022-10-16T15:05:55;6.27;;;2.30;;
19609;SDS011;9952;47.122;-1.638;2022-10-16T15:10:40;3.43;;;2.37;;
19609;SDS011;9952;47.122;-1.638;2022-10-16T15:15:39;2.73;;;2.47;;
19609;SDS011;9952;47.122;-1.638;2022-10-16T15:20:27;5.43;;;2.63;;
19609;SDS011;9952;47.122;-1.638;2022-10-16T15:25:22;6.57;;;3.00;;
19609;SDS011;9952;47.122;-1.638;2022-10-16T15:30:06;5.67;;;2.87;;
19609;SDS011;9952;47.122;-1.638;2022-10-16T15:34:50;4.53;;;3.07;;
19609;SDS011;9952;47.122;-1.638;2022-10-16T15:39:31;9.37;;;2.97;;
19609;SDS011;9952;47.122;-1.638;2022-10-16T15:44:17;5.60;;;3.27;;
19609;SDS011;9952;47.122;-1.638;2022-10-16T15:48:59;2.90;;;2.37;;
19609;SDS011;9952;47.122;-1.638;2022-10-16T15:53:40;6.17;;;2.60;;
19609;SDS011;9952;47.122;-1.638;2022-10-16T15:58:21;2.53;;;2.33;;
19609;SDS011;9952;47.122;-1.638;2022-10-16T16:03:04;3.40;;;3.10;;
19609;SDS011;9952;47.122;-1.638;2022-10-16T16:07:45;6.20;;;3.40;;
19609;SDS011;9952;47.122;-1.638;2022-10-16T16:12:28;5.43;;;3.17;;
19609;SDS011;9952;47.122;-1.638;2022-10-16T16:17:09;7.00;;;3.07;;
19609;SDS011;9952;47.122;-1.638;2022-10-16T16:21:54;7.27;;;3.07;;
19609;SDS011;9952;47.122;-1.638;2022-10-16T16:26:35;7.90;;;3.83;;
19609;SDS011;9952;47.122;-1.638;2022-10-16T16:31:19;10.03;;;3.50;;
19609;SDS011;9952;47.122;-1.638;2022-10-16T16:36:02;6.17;;;3.10;;
19609;SDS011;9952;47.122;-1.638;2022-10-16T16:40:46;9.30;;;3.40;;
19609;SDS011;9952;47.122;-1.638;2022-10-16T16:45:26;5.47;;;3.23;;
19609;SDS011;9952;47.122;-1.638;2022-10-16T16:50:07;4.90;;;3.20;;
19609;SDS011;9952;47.122;-1.638;2022-10-16T16:54:48;7.20;;;3.57;;
19609;SDS011;9952;47.122;-1.638;2022-10-16T16:59:31;6.77;;;3.57;;
19609;SDS011;9952;47.122;-1.638;2022-10-16T17:04:15;5.03;;;3.30;;
19609;SDS011;9952;47.122;-1.638;2022-10-16T17:08:56;8.83;;;3.67;;
19609;SDS011;9952;47.122;-1.638;2022-10-16T17:13:38;8.20;;;3.20;;
19609;SDS011;9952;47.122;-1.638;2022-10-16T17:18:19;6.47;;;3.67;;
19609;SDS011;9952;47.122;-1.638;2022-10-16T17:23:02;11.70;;;3.77;;
19609;SDS011;9952;47.122;-1.638;2022-10-16T17:27:42;14.57;;;4.57;;
19609;SDS011;9952;47.122;-1.638;2022-10-16T17:32:26;8.57;;;3.47;;
19609;SDS011;9952;47.122;-1.638;2022-10-16T17:37:07;6.63;;;3.87;;
19609;SDS011;9952;47.122;-1.638;2022-10-16T17:41:49;6.60;;;3.87;;
19609;SDS011;9952;47.122;-1.638;2022-10-16T17:46:33;6.00;;;3.77;;
19609;SDS011;9952;47.122;-1.638;2022-10-16T17:51:22;11.53;;;4.17;;
19609;SDS011;9952;47.122;-1.638;2022-10-16T17:56:11;9.67;;;3.97;;
19609;SDS011;9952;47.122;-1.638;2022-10-16T18:00:53;8.37;;;4.47;;
19609;SDS011;9952;47.122;-1.638;2022-10-16T18:05:36;12.23;;;4.97;;
19609;SDS011;9952;47.122;-1.638;2022-10-16T18:10:17;11.43;;;4.87;;
19609;SDS011;9952;47.122;-1.638;2022-10-16T18:14:58;9.70;;;4.40;;
19609;SDS011;9952;47.122;-1.638;2022-10-16T18:19:39;10.90;;;4.40;;
19609;SDS011;9952;47.122;-1.638;2022-10-16T18:24:20;10.57;;;4.97;;
19609;SDS011;9952;47.122;-1.638;2022-10-16T18:29:05;10.50;;;4.70;;
19609;SDS011;9952;47.122;-1.638;2022-10-16T18:33:46;9.03;;;4.70;;
19609;SDS011;9952;47.122;-1.638;2022-10-16T18:38:29;10.97;;;4.33;;
19609;SDS011;9952;47.122;-1.638;2022-10-16T18:43:10;8.27;;;4.43;;
19609;SDS011;9952;47.122;-1.638;2022-10-16T18:47:51;7.33;;;4.33;;
19609;SDS011;9952;47.122;-1.638;2022-10-16T18:52:32;10.67;;;5.00;;
19609;SDS011;9952;47.122;-1.638;2022-10-16T18:57:13;11.83;;;4.90;;
19609;SDS011;9952;47.122;-1.638;2022-10-16T19:01:54;10.70;;;4.70;;
19609;SDS011;9952;47.122;-1.638;2022-10-16T19:06:35;9.20;;;4.80;;
19609;SDS011;9952;47.122;-1.638;2022-10-16T19:11:19;11.87;;;5.60;;
19609;SDS011;9952;47.122;-1.638;2022-10-16T19:16:02;10.30;;;5.20;;
19609;SDS011;9952;47.122;-1.638;2022-10-16T19:20:48;10.77;;;5.67;;
19609;SDS011;9952;47.122;-1.638;2022-10-16T19:25:28;9.63;;;4.60;;
19609;SDS011;9952;47.122;-1.638;2022-10-16T19:30:09;12.20;;;5.47;;
19609;SDS011;9952;47.122;-1.638;2022-10-16T19:34:50;11.43;;;5.33;;
19609;SDS011;9952;47.122;-1.638;2022-10-16T19:39:31;10.03;;;5.50;;
19609;SDS011;9952;47.122;-1.638;2022-10-16T19:44:13;10.53;;;4.90;;
19609;SDS011;9952;47.122;-1.638;2022-10-16T19:48:55;11.77;;;7.03;;
19609;SDS011;9952;47.122;-1.638;2022-10-16T19:53:37;12.67;;;6.10;;
19609;SDS011;9952;47.122;-1.638;2022-10-16T19:58:18;10.90;;;5.37;;
19609;SDS011;9952;47.122;-1.638;2022-10-16T20:02:59;11.00;;;5.50;;
19609;SDS011;9952;47.122;-1.638;2022-10-16T20:07:42;12.93;;;5.77;;
19609;SDS011;9952;47.122;-1.638;2022-10-16T20:12:23;10.47;;;5.40;;
19609;SDS011;9952;47.122;-1.638;2022-10-16T20:17:04;15.60;;;6.20;;
19609;SDS011;9952;47.122;-1.638;2022-10-16T20:21:44;14.50;;;6.20;;
19609;SDS011;9952;47.122;-1.638;2022-10-16T20:26:25;13.47;;;6.13;;
19609;SDS011;9952;47.122;-1.638;2022-10-16T20:31:11;11.47;;;5.63;;
19609;SDS011;9952;47.122;-1.638;2022-10-16T20:35:59;15.57;;;6.47;;
19609;SDS011;9952;47.122;-1.638;2022-10-16T20:40:41;11.33;;;5.60;;
19609;SDS011;9952;47.122;-1.638;2022-10-16T20:45:23;15.10;;;5.87;;
19609;SDS011;9952;47.122;-1.638;2022-10-16T20:50:04;12.23;;;5.57;;
19609;SDS011;9952;47.122;-1.638;2022-10-16T20:54:45;8.90;;;5.43;;
19609;SDS011;9952;47.122;-1.638;2022-10-16T20:59:26;9.93;;;6.20;;
19609;SDS011;9952;47.122;-1.638;2022-10-16T21:04:07;17.23;;;7.03;;
19609;SDS011;9952;47.122;-1.638;2022-10-16T21:08:48;16.27;;;6.73;;
19609;SDS011;9952;47.122;-1.638;2022-10-16T21:13:29;13.63;;;6.97;;
19609;SDS011;9952;47.122;-1.638;2022-10-16T21:18:10;21.33;;;7.00;;
19609;SDS011;9952;47.122;-1.638;2022-10-16T21:22:51;17.93;;;7.47;;
19609;SDS011;9952;47.122;-1.638;2022-10-16T21:27:38;12.13;;;6.93;;
19609;SDS011;9952;47.122;-1.638;2022-10-16T21:32:20;14.53;;;7.43;;
19609;SDS011;9952;47.122;-1.638;2022-10-16T21:37:00;19.03;;;7.30;;
19609;SDS011;9952;47.122;-1.638;2022-10-16T21:41:42;14.07;;;7.50;;
19609;SDS011;9952;47.122;-1.638;2022-10-16T21:46:26;17.07;;;7.47;;
19609;SDS011;9952;47.122;-1.638;2022-10-16T21:51:09;19.07;;;7.50;;
19609;SDS011;9952;47.122;-1.638;2022-10-16T21:55:51;14.20;;;6.87;;
19609;SDS011;9952;47.122;-1.638;2022-10-16T22:00:32;10.83;;;7.00;;
19609;SDS011;9952;47.122;-1.638;2022-10-16T22:05:12;17.40;;;7.17;;
19609;SDS011;9952;47.122;-1.638;2022-10-16T22:09:53;11.50;;;5.90;;
19609;SDS011;9952;47.122;-1.638;2022-10-16T22:14:34;10.33;;;6.00;;
19609;SDS011;9952;47.122;-1.638;2022-10-16T22:19:16;16.50;;;6.30;;
19609;SDS011;9952;47.122;-1.638;2022-10-16T22:24:00;17.43;;;6.40;;
19609;SDS011;9952;47.122;-1.638;2022-10-16T22:28:41;14.03;;;6.70;;
19609;SDS011;9952;47.122;-1.638;2022-10-16T22:33:22;14.20;;;6.40;;
19609;SDS011;9952;47.122;-1.638;2022-10-16T22:38:03;13.40;;;6.60;;
19609;SDS011;9952;47.122;-1.638;2022-10-16T22:42:44;13.77;;;6.43;;
19609;SDS011;9952;47.122;-1.638;2022-10-16T22:47:24;9.20;;;5.83;;
19609;SDS011;9952;47.122;-1.638;2022-10-16T22:52:05;11.07;;;5.57;;
19609;SDS011;9952;47.122;-1.638;2022-10-16T22:56:46;11.63;;;5.27;;
19609;SDS011;9952;47.122;-1.638;2022-10-16T23:01:28;10.87;;;6.67;;
19609;SDS011;9952;47.122;-1.638;2022-10-16T23:06:11;15.37;;;7.70;;
19609;SDS011;9952;47.122;-1.638;2022-10-16T23:10:52;19.70;;;7.93;;
19609;SDS011;9952;47.122;-1.638;2022-10-16T23:15:32;15.80;;;7.37;;
19609;SDS011;9952;47.122;-1.638;2022-10-16T23:20:13;13.57;;;6.83;;
19609;SDS011;9952;47.122;-1.638;2022-10-16T23:24:54;12.17;;;6.83;;
19609;SDS011;9952;47.122;-1.638;2022-10-16T23:29:35;19.93;;;6.40;;
19609;SDS011;9952;47.122;-1.638;2022-10-16T23:34:16;13.77;;;6.93;;
19609;SDS011;9952;47.122;-1.638;2022-10-16T23:38:56;14.37;;;6.80;;
19609;SDS011;9952;47.122;-1.638;2022-10-16T23:43:37;14.53;;;6.30;;
19609;SDS011;9952;47.122;-1.638;2022-10-16T23:48:18;11.83;;;5.97;;
19609;SDS011;9952;47.122;-1.638;2022-10-16T23:52:59;17.33;;;6.43;;
19609;SDS011;9952;47.122;-1.638;2022-10-16T23:57:40;11.10;;;5.90;;
